KCHD/CHD METAR and TAF weather

Enter ICAO airport designator
Station Type Date Time Source
KCHD METAR 2018/01/19 22:47 UTC NOAA

KCHD 192247Z 00000KT 10SM CLR 24/M04 A2989


Station Type Date Time Source
KCHD Decoded METAR 2018/01/19 22:47 UTC NOAA

Chandler, Chandler Municipal Airport, AZ, United States (KCHD) 33-16-09N 111-48-40W
Jan 19, 2018 - 05:47 PM EST / 2018.01.19 2247 UTC
Wind: Calm:0
Visibility: 10 mile(s):0
Sky conditions: clear
Temperature: 75 F (24 C)
Dew Point: 24 F (-4 C)
Relative Humidity: 15%
Pressure (altimeter): 29.89 in. Hg (1012 hPa)
ob: KCHD 192247Z 00000KT 10SM CLR 24/M04 A2989
cycle: 23

Station Type Date Time Source
KCHD TAF UTC NOAA

Error!


Example: see airport list